オークランド の空港の天気 - METARとTAF

オークランド国際空港 ( NZAA / AKL ) - ニュージーランド オークランド|オークランド
飛行場実況気象(Metar)
観測時間05/01 02:00 NZST (04/30 14:00 UTC)
風向・風速北西 5m/s
視程10km以上
天気現象弱い雨
全天の8割程度の雲 雲底高度 670m
全天の8割程度の雲 雲底高度 980m
全天を覆う雲 雲底高度 1680m
気温13℃
湿度88%
気圧1001hPa
METARNZAA 301400Z AUTO 31009KT 280V350 9999 -RA BKN022/// BKN032/// OVC055/// 13/11 Q1001 BECMG 18030G45KT TEMPO 6000 SHRA
過去の天気等 Google飛行場航空写真 Wunderground天気予報

過去48時間のMETAR

飛行場予報(TAF)
発表時間: 5/01 00:03 NZST (4/30 12:03 UTC)
予報対象時間: 1日0時 NZST ~ 2日0時 NZST
風向・風速西南西 10m/s 瞬間風速 15m/s
視程10km以上
天気現象弱いしゅう雨
全天の4割程度の雲 雲底高度 460m
全天の8割程度の雲 雲底高度 610m
1日0時 NZST ~ 1日2時 NZST に徐々に
風向・風速南 15m/s 瞬間風速 23m/s
1日0時 NZST ~ 1日7時 NZST に一時的に
視程6,000m
天気現象しゅう雨
1日5時 NZST ~ 1日7時 NZST に徐々に
風向・風速南 10m/s 瞬間風速 18m/s
1日8時 NZST から
風向・風速南 8m/s 瞬間風速 13m/s
視程10km以上
なし
1日17時 NZST ~ 1日19時 NZST に徐々に
風向・風速南 8m/s
TAF AMD NZAA 301203Z 3012/0112 25020G30KT 9999 -SHRA SCT015 BKN020
BECMG 3012/3014 18030G45KT
TEMPO 3012/3019 6000 SHRA
BECMG 3017/3019 18020G35KT
FM302000 19015G25KT CAVOK
BECMG 0105/0107 19015KT